sensor_id;sensor_type;location;lat;lon;timestamp;temperature;humidity
68378;DHT22;55322;48.146;11.516;2022-12-11T00:01:49;-1.54;96.76
68378;DHT22;55322;48.146;11.516;2022-12-11T00:04:14;-1.61;96.67
68378;DHT22;55322;48.146;11.516;2022-12-11T00:06:40;-1.64;96.62
68378;DHT22;55322;48.146;11.516;2022-12-11T00:09:06;-1.66;96.39
68378;DHT22;55322;48.146;11.516;2022-12-11T00:11:31;-1.68;96.77
68378;DHT22;55322;48.146;11.516;2022-12-11T00:13:57;-1.74;96.83
68378;DHT22;55322;48.146;11.516;2022-12-11T00:16:23;-1.71;96.77
68378;DHT22;55322;48.146;11.516;2022-12-11T00:18:48;-1.70;96.99
68378;DHT22;55322;48.146;11.516;2022-12-11T00:21:13;-1.70;96.69
68378;DHT22;55322;48.146;11.516;2022-12-11T00:23:40;-1.74;96.54
68378;DHT22;55322;48.146;11.516;2022-12-11T00:26:08;-1.74;96.56
68378;DHT22;55322;48.146;11.516;2022-12-11T00:28:34;-1.77;96.39
68378;DHT22;55322;48.146;11.516;2022-12-11T00:31:07;-1.80;96.49
68378;DHT22;55322;48.146;11.516;2022-12-11T00:33:33;-1.78;96.58
68378;DHT22;55322;48.146;11.516;2022-12-11T00:35:59;-1.75;96.57
68378;DHT22;55322;48.146;11.516;2022-12-11T00:38:24;-1.80;96.44
68378;DHT22;55322;48.146;11.516;2022-12-11T00:40:50;-1.84;95.99
68378;DHT22;55322;48.146;11.516;2022-12-11T00:43:15;-1.87;96.35
68378;DHT22;55322;48.146;11.516;2022-12-11T00:45:42;-1.90;96.36
68378;DHT22;55322;48.146;11.516;2022-12-11T00:48:09;-1.85;96.36
68378;DHT22;55322;48.146;11.516;2022-12-11T00:50:35;-1.91;96.31
68378;DHT22;55322;48.146;11.516;2022-12-11T00:53:01;-1.88;96.09
68378;DHT22;55322;48.146;11.516;2022-12-11T00:55:27;-1.87;96.29
68378;DHT22;55322;48.146;11.516;2022-12-11T00:57:54;-1.88;96.19
68378;DHT22;55322;48.146;11.516;2022-12-11T01:00:20;-1.87;96.18
68378;DHT22;55322;48.146;11.516;2022-12-11T01:02:47;-1.90;96.07
68378;DHT22;55322;48.146;11.516;2022-12-11T01:05:12;-1.90;95.95
68378;DHT22;55322;48.146;11.516;2022-12-11T01:07:37;-1.94;96.03
68378;DHT22;55322;48.146;11.516;2022-12-11T01:10:03;-1.88;96.29
68378;DHT22;55322;48.146;11.516;2022-12-11T01:12:47;-1.87;96.25
68378;DHT22;55322;48.146;11.516;2022-12-11T01:15:12;-1.90;96.27
68378;DHT22;55322;48.146;11.516;2022-12-11T01:17:38;-1.85;96.16
68378;DHT22;55322;48.146;11.516;2022-12-11T01:20:04;-1.90;95.78
68378;DHT22;55322;48.146;11.516;2022-12-11T01:22:30;-1.95;95.91
68378;DHT22;55322;48.146;11.516;2022-12-11T01:24:55;-1.97;95.85
68378;DHT22;55322;48.146;11.516;2022-12-11T01:27:21;-2.01;95.97
68378;DHT22;55322;48.146;11.516;2022-12-11T01:29:46;-2.02;96.13
68378;DHT22;55322;48.146;11.516;2022-12-11T01:32:11;-1.98;96.44
68378;DHT22;55322;48.146;11.516;2022-12-11T01:34:37;-1.91;96.36
68378;DHT22;55322;48.146;11.516;2022-12-11T01:37:03;-1.85;96.06
68378;DHT22;55322;48.146;11.516;2022-12-11T01:39:29;-1.84;96.40
68378;DHT22;55322;48.146;11.516;2022-12-11T01:41:59;-1.81;96.28
68378;DHT22;55322;48.146;11.516;2022-12-11T01:46:51;-1.74;96.09
68378;DHT22;55322;48.146;11.516;2022-12-11T01:49:18;-1.74;96.04
68378;DHT22;55322;48.146;11.516;2022-12-11T01:51:51;-1.74;96.01
68378;DHT22;55322;48.146;11.516;2022-12-11T01:54:20;-1.75;95.60
68378;DHT22;55322;48.146;11.516;2022-12-11T01:56:47;-1.72;95.71
68378;DHT22;55322;48.146;11.516;2022-12-11T01:59:17;-1.70;95.72
68378;DHT22;55322;48.146;11.516;2022-12-11T02:01:49;-1.67;95.72
68378;DHT22;55322;48.146;11.516;2022-12-11T02:04:18;-1.66;95.68
68378;DHT22;55322;48.146;11.516;2022-12-11T02:06:46;-1.64;95.56
68378;DHT22;55322;48.146;11.516;2022-12-11T02:09:15;-1.66;95.53
68378;DHT22;55322;48.146;11.516;2022-12-11T02:11:46;-1.64;95.54
68378;DHT22;55322;48.146;11.516;2022-12-11T02:14:30;-1.66;95.33
68378;DHT22;55322;48.146;11.516;2022-12-11T02:17:18;-1.67;95.31
68378;DHT22;55322;48.146;11.516;2022-12-11T02:28:20;-1.74;95.63
68378;DHT22;55322;48.146;11.516;2022-12-11T02:30:50;-1.81;95.75
68378;DHT22;55322;48.146;11.516;2022-12-11T02:33:22;-1.72;95.91
68378;DHT22;55322;48.146;11.516;2022-12-11T02:35:50;-1.72;95.87
68378;DHT22;55322;48.146;11.516;2022-12-11T02:38:20;-1.77;95.56
68378;DHT22;55322;48.146;11.516;2022-12-11T02:40:48;-1.78;95.24
68378;DHT22;55322;48.146;11.516;2022-12-11T02:43:16;-1.82;95.50
68378;DHT22;55322;48.146;11.516;2022-12-11T02:45:45;-1.85;95.75
68378;DHT22;55322;48.146;11.516;2022-12-11T02:48:11;-1.85;95.96
68378;DHT22;55322;48.146;11.516;2022-12-11T02:50:41;-1.87;95.96
68378;DHT22;55322;48.146;11.516;2022-12-11T02:53:09;-1.87;95.84
68378;DHT22;55322;48.146;11.516;2022-12-11T02:55:37;-1.84;95.80
68378;DHT22;55322;48.146;11.516;2022-12-11T02:58:10;-1.84;95.86
68378;DHT22;55322;48.146;11.516;2022-12-11T03:00:37;-1.90;95.58
68378;DHT22;55322;48.146;11.516;2022-12-11T03:03:03;-1.90;95.86
68378;DHT22;55322;48.146;11.516;2022-12-11T03:05:29;-1.85;95.99
68378;DHT22;55322;48.146;11.516;2022-12-11T03:07:55;-1.84;95.76
68378;DHT22;55322;48.146;11.516;2022-12-11T03:10:20;-1.77;95.91
68378;DHT22;55322;48.146;11.516;2022-12-11T03:12:49;-1.77;95.87
68378;DHT22;55322;48.146;11.516;2022-12-11T03:15:18;-1.82;95.29
68378;DHT22;55322;48.146;11.516;2022-12-11T03:20:38;-1.77;95.73
68378;DHT22;55322;48.146;11.516;2022-12-11T03:23:19;-1.80;95.28
68378;DHT22;55322;48.146;11.516;2022-12-11T03:26:04;-1.78;95.03
68378;DHT22;55322;48.146;11.516;2022-12-11T03:28:40;-1.81;95.28
68378;DHT22;55322;48.146;11.516;2022-12-11T03:31:12;-1.80;95.61
68378;DHT22;55322;48.146;11.516;2022-12-11T03:33:41;-1.81;95.38
68378;DHT22;55322;48.146;11.516;2022-12-11T03:36:11;-1.90;95.54
68378;DHT22;55322;48.146;11.516;2022-12-11T03:38:49;-1.81;95.52
68378;DHT22;55322;48.146;11.516;2022-12-11T03:41:18;-1.80;94.95
68378;DHT22;55322;48.146;11.516;2022-12-11T03:43:47;-1.90;94.84
68378;DHT22;55322;48.146;11.516;2022-12-11T03:46:14;-1.88;95.25
68378;DHT22;55322;48.146;11.516;2022-12-11T03:48:43;-1.97;95.10
68378;DHT22;55322;48.146;11.516;2022-12-11T03:51:09;-1.95;95.32
68378;DHT22;55322;48.146;11.516;2022-12-11T03:53:36;-1.99;95.06
68378;DHT22;55322;48.146;11.516;2022-12-11T03:56:05;-1.94;95.08
68378;DHT22;55322;48.146;11.516;2022-12-11T03:58:32;-1.98;94.83
68378;DHT22;55322;48.146;11.516;2022-12-11T04:00:57;-1.97;94.83
68378;DHT22;55322;48.146;11.516;2022-12-11T04:03:23;-1.99;94.66
68378;DHT22;55322;48.146;11.516;2022-12-11T04:05:53;-1.94;94.82
68378;DHT22;55322;48.146;11.516;2022-12-11T04:08:21;-1.98;95.03
68378;DHT22;55322;48.146;11.516;2022-12-11T04:10:46;-1.97;94.90
68378;DHT22;55322;48.146;11.516;2022-12-11T04:13:13;-2.02;94.66
68378;DHT22;55322;48.146;11.516;2022-12-11T04:15:39;-2.02;94.85
68378;DHT22;55322;48.146;11.516;2022-12-11T04:18:05;-2.05;94.81
68378;DHT22;55322;48.146;11.516;2022-12-11T04:20:52;-2.09;94.49
68378;DHT22;55322;48.146;11.516;2022-12-11T04:23:36;-2.19;94.70
68378;DHT22;55322;48.146;11.516;2022-12-11T04:26:20;-2.19;95.07
68378;DHT22;55322;48.146;11.516;2022-12-11T04:28:48;-2.23;94.85
68378;DHT22;55322;48.146;11.516;2022-12-11T04:31:16;-2.26;94.85
68378;DHT22;55322;48.146;11.516;2022-12-11T04:33:42;-2.32;95.17
68378;DHT22;55322;48.146;11.516;2022-12-11T04:36:08;-2.31;95.09
68378;DHT22;55322;48.146;11.516;2022-12-11T04:38:34;-2.32;94.95
68378;DHT22;55322;48.146;11.516;2022-12-11T04:41:06;-2.29;95.05
68378;DHT22;55322;48.146;11.516;2022-12-11T04:43:31;-2.33;95.00
68378;DHT22;55322;48.146;11.516;2022-12-11T04:46:06;-2.33;95.09
68378;DHT22;55322;48.146;11.516;2022-12-11T04:48:32;-2.41;94.79
68378;DHT22;55322;48.146;11.516;2022-12-11T04:50:58;-2.42;94.95
68378;DHT22;55322;48.146;11.516;2022-12-11T04:53:23;-2.42;94.96
68378;DHT22;55322;48.146;11.516;2022-12-11T04:55:49;-2.41;95.03
68378;DHT22;55322;48.146;11.516;2022-12-11T04:58:14;-2.46;95.05
68378;DHT22;55322;48.146;11.516;2022-12-11T05:00:40;-2.49;93.89
68378;DHT22;55322;48.146;11.516;2022-12-11T05:03:06;-2.46;94.13
68378;DHT22;55322;48.146;11.516;2022-12-11T05:05:31;-2.48;93.84
68378;DHT22;55322;48.146;11.516;2022-12-11T05:07:56;-2.46;93.62
68378;DHT22;55322;48.146;11.516;2022-12-11T05:10:22;-2.46;93.94
68378;DHT22;55322;48.146;11.516;2022-12-11T05:12:47;-2.48;93.74
68378;DHT22;55322;48.146;11.516;2022-12-11T05:15:13;-2.52;94.08
68378;DHT22;55322;48.146;11.516;2022-12-11T05:17:38;-2.50;94.01
68378;DHT22;55322;48.146;11.516;2022-12-11T05:20:04;-2.52;94.50
68378;DHT22;55322;48.146;11.516;2022-12-11T05:22:29;-2.50;94.30
68378;DHT22;55322;48.146;11.516;2022-12-11T05:24:55;-2.50;94.08
68378;DHT22;55322;48.146;11.516;2022-12-11T05:27:20;-2.43;94.11
68378;DHT22;55322;48.146;11.516;2022-12-11T05:29:46;-2.38;93.89
68378;DHT22;55322;48.146;11.516;2022-12-11T05:32:11;-2.36;93.81
68378;DHT22;55322;48.146;11.516;2022-12-11T05:34:37;-2.42;93.52
68378;DHT22;55322;48.146;11.516;2022-12-11T05:37:02;-2.36;93.74
68378;DHT22;55322;48.146;11.516;2022-12-11T05:39:27;-2.42;93.71
68378;DHT22;55322;48.146;11.516;2022-12-11T05:41:53;-2.48;93.64
68378;DHT22;55322;48.146;11.516;2022-12-11T05:44:18;-2.50;93.52
68378;DHT22;55322;48.146;11.516;2022-12-11T05:46:43;-2.57;92.64
68378;DHT22;55322;48.146;11.516;2022-12-11T05:49:09;-2.60;92.97
68378;DHT22;55322;48.146;11.516;2022-12-11T05:51:35;-2.77;92.81
68378;DHT22;55322;48.146;11.516;2022-12-11T05:54:01;-2.77;92.84
68378;DHT22;55322;48.146;11.516;2022-12-11T05:56:29;-2.87;93.36
68378;DHT22;55322;48.146;11.516;2022-12-11T05:58:56;-2.94;93.52
68378;DHT22;55322;48.146;11.516;2022-12-11T06:01:27;-3.03;94.11
68378;DHT22;55322;48.146;11.516;2022-12-11T06:03:54;-3.04;93.79
68378;DHT22;55322;48.146;11.516;2022-12-11T06:06:20;-3.10;93.79
68378;DHT22;55322;48.146;11.516;2022-12-11T06:08:48;-3.08;94.17
68378;DHT22;55322;48.146;11.516;2022-12-11T06:11:14;-3.01;94.37
68378;DHT22;55322;48.146;11.516;2022-12-11T06:13:39;-2.94;94.65
68378;DHT22;55322;48.146;11.516;2022-12-11T06:16:06;-2.93;94.88
68378;DHT22;55322;48.146;11.516;2022-12-11T06:18:35;-2.84;94.90
68378;DHT22;55322;48.146;11.516;2022-12-11T06:21:00;-2.83;94.72
68378;DHT22;55322;48.146;11.516;2022-12-11T06:23:26;-2.79;94.92
68378;DHT22;55322;48.146;11.516;2022-12-11T06:25:51;-2.75;95.04
68378;DHT22;55322;48.146;11.516;2022-12-11T06:28:16;-2.72;95.15
68378;DHT22;55322;48.146;11.516;2022-12-11T06:30:42;-2.70;95.12
68378;DHT22;55322;48.146;11.516;2022-12-11T06:33:07;-2.62;94.93
68378;DHT22;55322;48.146;11.516;2022-12-11T06:35:32;-2.55;94.93
68378;DHT22;55322;48.146;11.516;2022-12-11T06:37:58;-2.50;94.62
68378;DHT22;55322;48.146;11.516;2022-12-11T06:40:23;-2.49;94.58
68378;DHT22;55322;48.146;11.516;2022-12-11T06:42:48;-2.48;94.70
68378;DHT22;55322;48.146;11.516;2022-12-11T06:45:14;-2.48;94.86
68378;DHT22;55322;48.146;11.516;2022-12-11T06:47:39;-2.45;94.95
68378;DHT22;55322;48.146;11.516;2022-12-11T06:50:05;-2.42;94.90
68378;DHT22;55322;48.146;11.516;2022-12-11T06:52:30;-2.38;94.45
68378;DHT22;55322;48.146;11.516;2022-12-11T06:54:55;-2.39;94.80
68378;DHT22;55322;48.146;11.516;2022-12-11T06:57:21;-2.35;94.92
68378;DHT22;55322;48.146;11.516;2022-12-11T06:59:47;-2.32;94.83
68378;DHT22;55322;48.146;11.516;2022-12-11T07:02:14;-2.35;94.94
68378;DHT22;55322;48.146;11.516;2022-12-11T07:04:40;-2.29;94.96
68378;DHT22;55322;48.146;11.516;2022-12-11T07:07:06;-2.32;94.73
68378;DHT22;55322;48.146;11.516;2022-12-11T07:09:32;-2.26;94.83
68378;DHT22;55322;48.146;11.516;2022-12-11T07:11:58;-2.19;94.63
68378;DHT22;55322;48.146;11.516;2022-12-11T07:14:23;-2.16;94.54
68378;DHT22;55322;48.146;11.516;2022-12-11T07:16:48;-2.13;94.61
68378;DHT22;55322;48.146;11.516;2022-12-11T07:19:14;-2.08;94.01
68378;DHT22;55322;48.146;11.516;2022-12-11T07:21:39;-2.11;93.22
68378;DHT22;55322;48.146;11.516;2022-12-11T07:24:05;-2.09;92.57
68378;DHT22;55322;48.146;11.516;2022-12-11T07:26:30;-2.08;93.05
68378;DHT22;55322;48.146;11.516;2022-12-11T07:28:56;-2.06;92.86
68378;DHT22;55322;48.146;11.516;2022-12-11T07:31:23;-2.03;93.22
68378;DHT22;55322;48.146;11.516;2022-12-11T07:33:57;-2.02;93.42
68378;DHT22;55322;48.146;11.516;2022-12-11T07:36:23;-1.99;93.25
68378;DHT22;55322;48.146;11.516;2022-12-11T07:38:49;-1.97;93.30
68378;DHT22;55322;48.146;11.516;2022-12-11T07:41:15;-1.97;92.86
68378;DHT22;55322;48.146;11.516;2022-12-11T07:43:41;-1.95;92.59
68378;DHT22;55322;48.146;11.516;2022-12-11T07:46:10;-1.91;92.57
68378;DHT22;55322;48.146;11.516;2022-12-11T07:48:38;-1.94;92.54
68378;DHT22;55322;48.146;11.516;2022-12-11T07:51:11;-1.90;92.64
68378;DHT22;55322;48.146;11.516;2022-12-11T07:53:39;-1.85;92.20
68378;DHT22;55322;48.146;11.516;2022-12-11T07:56:05;-1.82;92.03
68378;DHT22;55322;48.146;11.516;2022-12-11T07:58:30;-1.87;91.80
68378;DHT22;55322;48.146;11.516;2022-12-11T08:00:56;-1.85;91.99
68378;DHT22;55322;48.146;11.516;2022-12-11T08:03:22;-1.85;91.82
68378;DHT22;55322;48.146;11.516;2022-12-11T08:05:48;-1.81;91.80
68378;DHT22;55322;48.146;11.516;2022-12-11T08:08:14;-1.77;92.17
68378;DHT22;55322;48.146;11.516;2022-12-11T08:10:39;-1.68;90.95
68378;DHT22;55322;48.146;11.516;2022-12-11T08:13:05;-1.67;90.80
68378;DHT22;55322;48.146;11.516;2022-12-11T08:15:30;-1.67;91.31
68378;DHT22;55322;48.146;11.516;2022-12-11T08:17:55;-1.61;91.41
68378;DHT22;55322;48.146;11.516;2022-12-11T08:20:20;-1.60;90.25
68378;DHT22;55322;48.146;11.516;2022-12-11T08:22:46;-1.58;90.19
68378;DHT22;55322;48.146;11.516;2022-12-11T08:25:11;-1.57;90.67
68378;DHT22;55322;48.146;11.516;2022-12-11T08:27:36;-1.50;90.40
68378;DHT22;55322;48.146;11.516;2022-12-11T08:30:02;-1.42;90.00
68378;DHT22;55322;48.146;11.516;2022-12-11T08:32:27;-1.43;90.06
68378;DHT22;55322;48.146;11.516;2022-12-11T08:34:53;-1.46;89.25
68378;DHT22;55322;48.146;11.516;2022-12-11T08:37:18;-1.33;89.90
68378;DHT22;55322;48.146;11.516;2022-12-11T08:39:43;-1.39;89.46
68378;DHT22;55322;48.146;11.516;2022-12-11T08:42:11;-1.30;89.19
68378;DHT22;55322;48.146;11.516;2022-12-11T08:44:36;-1.26;89.89
68378;DHT22;55322;48.146;11.516;2022-12-11T08:47:01;-1.32;88.58
68378;DHT22;55322;48.146;11.516;2022-12-11T08:49:27;-1.42;89.50
68378;DHT22;55322;48.146;11.516;2022-12-11T08:51:52;-1.36;89.60
68378;DHT22;55322;48.146;11.516;2022-12-11T08:54:17;-1.35;88.58
68378;DHT22;55322;48.146;11.516;2022-12-11T08:56:43;-1.21;88.88
68378;DHT22;55322;48.146;11.516;2022-12-11T08:59:08;-1.15;88.35
68378;DHT22;55322;48.146;11.516;2022-12-11T09:01:33;-1.00;88.22
68378;DHT22;55322;48.146;11.516;2022-12-11T09:03:59;-0.93;87.01
68378;DHT22;55322;48.146;11.516;2022-12-11T09:06:27;-0.86;87.11
68378;DHT22;55322;48.146;11.516;2022-12-11T09:08:53;-0.66;86.74
68378;DHT22;55322;48.146;11.516;2022-12-11T09:11:26;-0.78;85.75
68378;DHT22;55322;48.146;11.516;2022-12-11T09:13:52;-0.88;86.37
68378;DHT22;55322;48.146;11.516;2022-12-11T09:16:20;-0.73;87.51
68378;DHT22;55322;48.146;11.516;2022-12-11T09:18:46;-0.93;86.48
68378;DHT22;55322;48.146;11.516;2022-12-11T09:21:13;-1.06;86.73
68378;DHT22;55322;48.146;11.516;2022-12-11T09:23:39;-1.03;86.85
68378;DHT22;55322;48.146;11.516;2022-12-11T09:26:06;-0.95;86.34
68378;DHT22;55322;48.146;11.516;2022-12-11T09:28:32;-1.05;85.79
68378;DHT22;55322;48.146;11.516;2022-12-11T09:30:57;-1.09;85.57
68378;DHT22;55322;48.146;11.516;2022-12-11T09:33:23;-0.95;86.62
68378;DHT22;55322;48.146;11.516;2022-12-11T09:36:01;-0.79;85.88
68378;DHT22;55322;48.146;11.516;2022-12-11T09:38:27;-0.64;84.61
68378;DHT22;55322;48.146;11.516;2022-12-11T09:40:53;-0.47;83.86
68378;DHT22;55322;48.146;11.516;2022-12-11T09:43:41;-0.31;83.89
68378;DHT22;55322;48.146;11.516;2022-12-11T09:46:13;-0.45;82.81
68378;DHT22;55322;48.146;11.516;2022-12-11T09:48:42;-0.47;84.41
68378;DHT22;55322;48.146;11.516;2022-12-11T09:51:26;-0.62;83.72
68378;DHT22;55322;48.146;11.516;2022-12-11T09:53:55;-0.41;83.68
68378;DHT22;55322;48.146;11.516;2022-12-11T09:56:25;-0.55;84.18
68378;DHT22;55322;48.146;11.516;2022-12-11T09:59:15;-0.60;83.35
68378;DHT22;55322;48.146;11.516;2022-12-11T10:01:49;-0.58;84.08
68378;DHT22;55322;48.146;11.516;2022-12-11T10:04:23;-0.81;83.01
68378;DHT22;55322;48.146;11.516;2022-12-11T10:07:10;-0.79;83.81
68378;DHT22;55322;48.146;11.516;2022-12-11T10:10:01;-0.83;82.84
68378;DHT22;55322;48.146;11.516;2022-12-11T10:17:49;-0.64;82.58
68378;DHT22;55322;48.146;11.516;2022-12-11T10:20:28;-0.10;80.91
68378;DHT22;55322;48.146;11.516;2022-12-11T10:23:01;0.13;79.44
68378;DHT22;55322;48.146;11.516;2022-12-11T10:25:36;0.51;77.83
68378;DHT22;55322;48.146;11.516;2022-12-11T10:28:15;0.21;78.46
68378;DHT22;55322;48.146;11.516;2022-12-11T10:30:47;0.58;78.50
68378;DHT22;55322;48.146;11.516;2022-12-11T10:36:03;0.84;76.93
68378;DHT22;55322;48.146;11.516;2022-12-11T10:38:39;0.98;77.38
68378;DHT22;55322;48.146;11.516;2022-12-11T10:41:19;0.67;75.96
68378;DHT22;55322;48.146;11.516;2022-12-11T10:43:48;0.15;77.59
68378;DHT22;55322;48.146;11.516;2022-12-11T10:46:24;-0.34;79.33
68378;DHT22;55322;48.146;11.516;2022-12-11T10:48:55;-0.27;80.33
68378;DHT22;55322;48.146;11.516;2022-12-11T10:51:33;0.10;78.34
68378;DHT22;55322;48.146;11.516;2022-12-11T10:54:07;0.50;77.97
68378;DHT22;55322;48.146;11.516;2022-12-11T10:56:34;0.25;79.18
68378;DHT22;55322;48.146;11.516;2022-12-11T10:59:01;0.30;78.65
68378;DHT22;55322;48.146;11.516;2022-12-11T11:01:30;0.06;79.94
68378;DHT22;55322;48.146;11.516;2022-12-11T11:04:03;0.11;79.28
68378;DHT22;55322;48.146;11.516;2022-12-11T11:06:30;0.06;80.18
68378;DHT22;55322;48.146;11.516;2022-12-11T11:08:58;-0.28;79.47
68378;DHT22;55322;48.146;11.516;2022-12-11T11:11:35;0.09;80.43
68378;DHT22;55322;48.146;11.516;2022-12-11T11:14:17;0.38;79.68
68378;DHT22;55322;48.146;11.516;2022-12-11T11:16:45;0.72;79.80
68378;DHT22;55322;48.146;11.516;2022-12-11T11:19:20;0.43;78.35
68378;DHT22;55322;48.146;11.516;2022-12-11T11:21:51;0.06;79.68
68378;DHT22;55322;48.146;11.516;2022-12-11T11:24:32;-0.10;79.71
68378;DHT22;55322;48.146;11.516;2022-12-11T11:26:59;-0.65;81.21
68378;DHT22;55322;48.146;11.516;2022-12-11T11:29:28;-0.86;82.08
68378;DHT22;55322;48.146;11.516;2022-12-11T11:31:55;-0.83;80.90
68378;DHT22;55322;48.146;11.516;2022-12-11T11:34:20;-0.93;82.58
68378;DHT22;55322;48.146;11.516;2022-12-11T11:36:55;-0.93;82.99
68378;DHT22;55322;48.146;11.516;2022-12-11T11:39:39;-0.91;84.70
68378;DHT22;55322;48.146;11.516;2022-12-11T11:42:22;-0.96;83.95
68378;DHT22;55322;48.146;11.516;2022-12-11T11:45:11;-1.09;82.93
68378;DHT22;55322;48.146;11.516;2022-12-11T11:47:47;-1.10;83.38
68378;DHT22;55322;48.146;11.516;2022-12-11T11:50:18;-0.92;82.47
68378;DHT22;55322;48.146;11.516;2022-12-11T11:52:52;-0.37;81.49
68378;DHT22;55322;48.146;11.516;2022-12-11T11:58:02;0.34;80.29
68378;DHT22;55322;48.146;11.516;2022-12-11T12:00:31;0.45;79.33
68378;DHT22;55322;48.146;11.516;2022-12-11T12:08:47;-0.08;79.70
68378;DHT22;55322;48.146;11.516;2022-12-11T12:21:52;0.28;78.60
68378;DHT22;55322;48.146;11.516;2022-12-11T12:29:47;0.50;76.81
68378;DHT22;55322;48.146;11.516;2022-12-11T12:32:23;0.38;76.92
68378;DHT22;55322;48.146;11.516;2022-12-11T12:37:44;0.28;76.79
68378;DHT22;55322;48.146;11.516;2022-12-11T12:40:26;0.38;74.96
68378;DHT22;55322;48.146;11.516;2022-12-11T12:42:57;0.55;75.26
68378;DHT22;55322;48.146;11.516;2022-12-11T12:45:36;0.67;74.32
68378;DHT22;55322;48.146;11.516;2022-12-11T12:48:08;0.85;74.18
68378;DHT22;55322;48.146;11.516;2022-12-11T12:50:41;0.78;75.04
68378;DHT22;55322;48.146;11.516;2022-12-11T12:53:09;0.65;75.61
68378;DHT22;55322;48.146;11.516;2022-12-11T12:55:38;0.38;76.36
68378;DHT22;55322;48.146;11.516;2022-12-11T12:58:05;0.27;77.31
68378;DHT22;55322;48.146;11.516;2022-12-11T13:00:32;0.07;77.34
68378;DHT22;55322;48.146;11.516;2022-12-11T13:03:02;-0.01;78.41
68378;DHT22;55322;48.146;11.516;2022-12-11T13:05:40;-0.08;79.46
68378;DHT22;55322;48.146;11.516;2022-12-11T13:08:06;-0.34;79.08
68378;DHT22;55322;48.146;11.516;2022-12-11T13:10:34;-0.35;79.58
68378;DHT22;55322;48.146;11.516;2022-12-11T13:13:01;-0.35;80.20
68378;DHT22;55322;48.146;11.516;2022-12-11T13:15:36;-0.40;79.15
68378;DHT22;55322;48.146;11.516;2022-12-11T13:18:43;-0.47;79.99
68378;DHT22;55322;48.146;11.516;2022-12-11T13:23:53;-0.58;79.24
68378;DHT22;55322;48.146;11.516;2022-12-11T13:26:32;-0.47;80.09
68378;DHT22;55322;48.146;11.516;2022-12-11T13:28:58;-0.40;79.81
68378;DHT22;55322;48.146;11.516;2022-12-11T13:31:29;-0.50;79.60
68378;DHT22;55322;48.146;11.516;2022-12-11T13:33:57;-0.55;79.49
68378;DHT22;55322;48.146;11.516;2022-12-11T13:36:30;-0.65;80.05
68378;DHT22;55322;48.146;11.516;2022-12-11T13:42:18;-0.88;79.59
68378;DHT22;55322;48.146;11.516;2022-12-11T13:44:36;-0.88;79.67
68378;DHT22;55322;48.146;11.516;2022-12-11T13:47:05;-0.95;79.20
68378;DHT22;55322;48.146;11.516;2022-12-11T13:49:36;-0.91;79.92
68378;DHT22;55322;48.146;11.516;2022-12-11T13:52:02;-0.89;79.74
68378;DHT22;55322;48.146;11.516;2022-12-11T13:54:30;-0.85;80.14
68378;DHT22;55322;48.146;11.516;2022-12-11T14:01:57;-0.82;79.09
68378;DHT22;55322;48.146;11.516;2022-12-11T14:04:24;-0.82;79.81
68378;DHT22;55322;48.146;11.516;2022-12-11T14:06:52;-0.91;79.24
68378;DHT22;55322;48.146;11.516;2022-12-11T14:09:21;-0.91;79.20
68378;DHT22;55322;48.146;11.516;2022-12-11T14:11:48;-0.92;79.63
68378;DHT22;55322;48.146;11.516;2022-12-11T14:14:23;-0.96;79.41
68378;DHT22;55322;48.146;11.516;2022-12-11T14:16:50;-0.96;79.62
68378;DHT22;55322;48.146;11.516;2022-12-11T14:19:20;-1.02;80.04
68378;DHT22;55322;48.146;11.516;2022-12-11T14:22:03;-1.10;80.18
68378;DHT22;55322;48.146;11.516;2022-12-11T14:24:30;-1.13;79.89
68378;DHT22;55322;48.146;11.516;2022-12-11T14:26:55;-1.19;80.42
68378;DHT22;55322;48.146;11.516;2022-12-11T14:29:32;-1.26;80.97
68378;DHT22;55322;48.146;11.516;2022-12-11T14:32:01;-1.32;81.32
68378;DHT22;55322;48.146;11.516;2022-12-11T14:34:32;-1.39;81.85
68378;DHT22;55322;48.146;11.516;2022-12-11T14:37:00;-1.42;81.83
68378;DHT22;55322;48.146;11.516;2022-12-11T14:39:31;-1.57;81.72
68378;DHT22;55322;48.146;11.516;2022-12-11T14:42:09;-1.64;82.41
68378;DHT22;55322;48.146;11.516;2022-12-11T14:44:47;-1.67;82.54
68378;DHT22;55322;48.146;11.516;2022-12-11T14:47:19;-1.77;82.66
68378;DHT22;55322;48.146;11.516;2022-12-11T14:49:50;-1.81;82.61
68378;DHT22;55322;48.146;11.516;2022-12-11T14:52:22;-1.95;83.43
68378;DHT22;55322;48.146;11.516;2022-12-11T14:54:53;-1.98;83.68
68378;DHT22;55322;48.146;11.516;2022-12-11T14:57:24;-2.02;84.12
68378;DHT22;55322;48.146;11.516;2022-12-11T14:59:52;-2.05;84.34
68378;DHT22;55322;48.146;11.516;2022-12-11T15:02:32;-2.11;84.35
68378;DHT22;55322;48.146;11.516;2022-12-11T15:05:12;-2.12;84.71
68378;DHT22;55322;48.146;11.516;2022-12-11T15:07:38;-2.19;85.21
68378;DHT22;55322;48.146;11.516;2022-12-11T15:10:04;-2.25;85.37
68378;DHT22;55322;48.146;11.516;2022-12-11T15:12:30;-2.29;85.86
68378;DHT22;55322;48.146;11.516;2022-12-11T15:15:02;-2.38;85.83
68378;DHT22;55322;48.146;11.516;2022-12-11T15:17:29;-2.39;85.95
68378;DHT22;55322;48.146;11.516;2022-12-11T15:20:01;-2.42;86.23
68378;DHT22;55322;48.146;11.516;2022-12-11T15:22:30;-2.42;86.41
68378;DHT22;55322;48.146;11.516;2022-12-11T15:24:56;-2.45;86.70
68378;DHT22;55322;48.146;11.516;2022-12-11T15:29:50;-2.48;86.75
68378;DHT22;55322;48.146;11.516;2022-12-11T15:32:17;-2.50;86.85
68378;DHT22;55322;48.146;11.516;2022-12-11T15:34:56;-2.55;87.04
68378;DHT22;55322;48.146;11.516;2022-12-11T15:37:27;-2.53;87.13
68378;DHT22;55322;48.146;11.516;2022-12-11T15:39:54;-2.59;87.19
68378;DHT22;55322;48.146;11.516;2022-12-11T15:42:34;-2.57;87.53
68378;DHT22;55322;48.146;11.516;2022-12-11T15:45:00;-2.56;87.63
68378;DHT22;55322;48.146;11.516;2022-12-11T15:47:28;-2.55;88.56
68378;DHT22;55322;48.146;11.516;2022-12-11T15:50:06;-2.49;87.73
68378;DHT22;55322;48.146;11.516;2022-12-11T15:52:32;-2.46;87.52
68378;DHT22;55322;48.146;11.516;2022-12-11T15:54:58;-2.45;87.59
68378;DHT22;55322;48.146;11.516;2022-12-11T15:57:24;-2.43;86.83
68378;DHT22;55322;48.146;11.516;2022-12-11T15:59:50;-2.42;87.25
68378;DHT22;55322;48.146;11.516;2022-12-11T16:02:16;-2.38;87.42
68378;DHT22;55322;48.146;11.516;2022-12-11T16:04:42;-2.42;87.06
68378;DHT22;55322;48.146;11.516;2022-12-11T16:07:20;-2.41;87.13
68378;DHT22;55322;48.146;11.516;2022-12-11T16:09:46;-2.45;86.97
68378;DHT22;55322;48.146;11.516;2022-12-11T16:12:12;-2.49;87.27
68378;DHT22;55322;48.146;11.516;2022-12-11T16:14:39;-2.48;86.97
68378;DHT22;55322;48.146;11.516;2022-12-11T16:17:06;-2.46;86.59
68378;DHT22;55322;48.146;11.516;2022-12-11T16:19:31;-2.46;87.11
68378;DHT22;55322;48.146;11.516;2022-12-11T16:21:57;-2.49;87.41
68378;DHT22;55322;48.146;11.516;2022-12-11T16:24:22;-2.46;87.22
68378;DHT22;55322;48.146;11.516;2022-12-11T16:26:48;-2.46;86.41
68378;DHT22;55322;48.146;11.516;2022-12-11T16:29:13;-2.48;86.73
68378;DHT22;55322;48.146;11.516;2022-12-11T16:31:38;-2.46;86.77